Time;durP1;ratioP1;P1;durP2;ratioP2;P2;SDS_P1;SDS_P2;PMS_P1;PMS_P2;Temp;Humidity;BMP_temperature;BMP_pressure;BME280_temperature;BME280_humidity;BME280_pressure;Samples;Min_cycle;Max_cycle;Signal;HPM_P1;HPM_P2
2022/11/23 00:01:47;;;;;;;3.70;3.25;;;;;;;-2.30;98.62;101411.06;5074330;28;20452;-72
2022/11/23 00:04:13;;;;;;;2.97;2.67;;;;;;;-2.30;98.83;101402.38;5074322;28;20024;-72
2022/11/23 00:06:39;;;;;;;4.00;3.10;;;;;;;-2.26;98.54;101415.22;5074273;28;20020;-73
2022/11/23 00:09:05;;;;;;;3.30;3.00;;;;;;;-2.26;99.08;101420.44;5073446;28;20753;-72
2022/11/23 00:11:33;;;;;;;3.28;2.97;;;;;;;-2.40;99.17;101386.25;5074060;28;20055;-72
2022/11/23 00:13:59;;;;;;;3.00;2.80;;;;;;;-2.27;98.77;101416.16;5073876;28;20059;-71
2022/11/23 00:16:27;;;;;;;3.70;3.40;;;;;;;-2.21;98.82;101418.47;5074227;28;20068;-72
2022/11/23 00:18:54;;;;;;;3.65;3.10;;;;;;;-2.17;99.07;101415.75;5074380;28;20036;-73
2022/11/23 00:21:21;;;;;;;3.88;3.22;;;;;;;-2.13;98.90;101422.53;5074122;28;20044;-72
2022/11/23 00:23:47;;;;;;;3.72;3.38;;;;;;;-2.12;99.12;101417.22;5073784;28;20039;-71
2022/11/23 00:26:13;;;;;;;4.07;3.50;;;;;;;-2.13;99.02;101412.09;5073688;28;20131;-71
2022/11/23 00:28:39;;;;;;;3.28;2.97;;;;;;;-2.10;98.84;101425.00;5074009;28;20449;-72
2022/11/23 00:31:07;;;;;;;3.47;3.13;;;;;;;-2.15;98.88;101416.53;5074130;28;20033;-72
2022/11/23 00:33:32;;;;;;;3.42;3.13;;;;;;;-2.16;98.47;101415.69;5073744;28;20468;-71
2022/11/23 00:36:05;;;;;;;3.53;3.10;;;;;;;-2.22;98.62;101429.00;5073874;28;20043;-72
2022/11/23 00:38:31;;;;;;;3.53;2.88;;;;;;;-2.29;99.07;101425.78;5073362;28;20459;-72
2022/11/23 00:41:01;;;;;;;3.30;3.00;;;;;;;-2.33;99.25;101426.81;5073338;28;20051;-72
2022/11/23 00:43:28;;;;;;;4.18;3.78;;;;;;;-2.36;99.36;101426.94;5073781;28;20020;-73
2022/11/23 00:46:09;;;;;;;3.95;3.22;;;;;;;-2.36;99.70;101428.69;5055720;28;20036;-72
2022/11/23 00:48:35;;;;;;;6.57;4.28;;;;;;;-2.30;99.22;101431.06;5073685;28;20035;-72
2022/11/23 00:51:03;;;;;;;4.35;3.35;;;;;;;-2.30;99.36;101418.88;5073447;28;20478;-71
2022/11/23 00:53:28;;;;;;;4.40;3.30;;;;;;;-2.27;99.64;101418.75;5078134;28;20051;-73
2022/11/23 00:55:56;;;;;;;4.23;3.67;;;;;;;-2.26;98.91;101432.66;5098644;28;20029;-72
2022/11/23 00:58:22;;;;;;;3.33;3.03;;;;;;;-2.37;98.81;101437.44;5080451;28;20052;-72
2022/11/23 01:00:48;;;;;;;3.90;3.45;;;;;;;-2.39;99.42;101432.28;5059776;28;20068;-72
2022/11/23 01:03:14;;;;;;;4.57;3.20;;;;;;;-2.44;99.72;101436.84;5074283;28;20025;-72
2022/11/23 01:05:40;;;;;;;6.28;4.05;;;;;;;-2.42;99.73;101442.00;5072914;28;20024;-70
2022/11/23 01:08:06;;;;;;;14.07;4.47;;;;;;;-2.44;99.95;101441.22;5054880;28;20415;-72
2022/11/23 01:10:32;;;;;;;6.05;3.22;;;;;;;-2.47;100.00;101436.97;5073352;28;20460;-72
2022/11/23 01:12:58;;;;;;;4.47;4.07;;;;;;;-2.47;100.00;101436.97;5055081;28;20031;-72
2022/11/23 01:15:24;;;;;;;4.00;3.60;;;;;;;-2.50;100.00;101437.13;5073416;28;20247;-72
2022/11/23 01:17:50;;;;;;;5.73;4.00;;;;;;;-2.49;100.00;101436.19;5073440;28;20066;-72
2022/11/23 01:20:15;;;;;;;6.07;3.23;;;;;;;-2.51;100.00;101435.41;5072244;28;20032;-72
2022/11/23 01:22:41;;;;;;;3.93;3.53;;;;;;;-2.45;100.00;101440.38;5055135;28;20732;-72
2022/11/23 01:25:07;;;;;;;4.50;3.63;;;;;;;-2.44;100.00;101442.06;5073053;28;20024;-74
2022/11/23 01:27:32;;;;;;;3.40;3.10;;;;;;;-2.46;100.00;101433.47;5072889;28;20085;-72
2022/11/23 01:29:58;;;;;;;4.63;3.43;;;;;;;-2.52;100.00;101423.28;5072861;28;20062;-72
2022/11/23 01:32:23;;;;;;;3.70;3.30;;;;;;;-2.52;99.75;101428.50;5073120;28;20032;-73
2022/11/23 01:34:49;;;;;;;3.37;3.07;;;;;;;-2.55;99.30;101426.03;5073218;28;20032;-72
2022/11/23 01:37:14;;;;;;;3.10;2.80;;;;;;;-2.53;99.00;101427.66;5072472;28;20024;-72
2022/11/23 01:39:40;;;;;;;4.17;3.53;;;;;;;-2.56;98.98;101419.13;5073873;28;20503;-72
2022/11/23 01:42:07;;;;;;;3.07;2.77;;;;;;;-2.64;100.00;101422.00;5057095;28;20502;-72
2022/11/23 01:44:39;;;;;;;3.20;2.90;;;;;;;-2.59;100.00;101425.31;5055802;28;20023;-71
2022/11/23 01:47:07;;;;;;;3.50;3.13;;;;;;;-2.57;99.87;101422.63;5072764;28;20324;-71
2022/11/23 01:49:42;;;;;;;4.45;4.05;;;;;;;-2.60;99.71;101420.16;5072167;28;20072;-73
2022/11/23 01:52:16;;;;;;;4.57;3.00;;;;;;;-2.61;99.53;101426.25;5072481;28;20044;-73
2022/11/23 01:54:47;;;;;;;3.72;3.42;;;;;;;-2.63;99.40;101434.13;5054949;28;20093;-73
2022/11/23 01:57:21;;;;;;;5.47;3.17;;;;;;;-2.63;99.39;101426.31;5071983;28;20074;-73
2022/11/23 01:59:48;;;;;;;3.25;2.95;;;;;;;-2.57;99.50;101426.09;5071874;28;20028;-73
2022/11/23 02:02:14;;;;;;;3.72;3.33;;;;;;;-2.50;99.70;101434.50;5071865;28;20036;-72
2022/11/23 02:04:44;;;;;;;3.42;3.05;;;;;;;-2.43;99.29;101433.34;5072351;28;20109;-73
2022/11/23 02:07:10;;;;;;;3.90;3.40;;;;;;;-2.40;98.72;101427.97;5072184;28;20029;-72
2022/11/23 02:09:36;;;;;;;5.60;3.55;;;;;;;-2.46;98.68;101428.25;5072058;28;20020;-73
2022/11/23 02:12:02;;;;;;;3.73;3.37;;;;;;;-2.47;99.36;101426.56;5072086;28;20028;-72
2022/11/23 02:14:28;;;;;;;4.07;3.67;;;;;;;-2.43;99.67;101433.34;5071854;28;20341;-75
2022/11/23 02:16:58;;;;;;;4.25;3.60;;;;;;;-2.36;99.06;101431.31;5072054;28;20032;-72
2022/11/23 02:19:23;;;;;;;4.63;4.20;;;;;;;-2.32;97.76;101436.34;5071926;28;20028;-72
2022/11/23 02:21:51;;;;;;;3.90;3.60;;;;;;;-2.38;97.73;101422.69;5071538;28;20094;-72
2022/11/23 02:24:25;;;;;;;3.88;3.25;;;;;;;-2.48;97.80;101409.19;5071781;28;20465;-72
2022/11/23 02:26:51;;;;;;;3.95;3.22;;;;;;;-2.43;97.67;101422.06;5071780;28;20038;-72
2022/11/23 02:29:23;;;;;;;3.67;3.38;;;;;;;-2.45;98.06;101432.56;5071582;28;20020;-71
2022/11/23 02:31:49;;;;;;;3.70;3.30;;;;;;;-2.47;97.49;101441.34;5072159;28;20028;-71
2022/11/23 02:34:16;;;;;;;4.45;4.05;;;;;;;-2.50;97.74;101442.31;5054233;28;20043;-73
2022/11/23 02:36:51;;;;;;;3.72;3.30;;;;;;;-2.47;97.74;101451.78;5071515;28;20059;-72
2022/11/23 02:39:35;;;;;;;4.05;3.45;;;;;;;-2.48;97.31;101445.72;5071824;28;20428;-71
2022/11/23 02:42:02;;;;;;;3.83;3.42;;;;;;;-2.50;97.57;101448.41;5071828;28;20082;-73
2022/11/23 02:44:42;;;;;;;3.47;3.17;;;;;;;-2.48;97.92;101448.34;5071914;28;20042;-72
2022/11/23 02:47:09;;;;;;;4.65;4.00;;;;;;;-2.47;97.78;101447.41;5071457;28;20502;-74
2022/11/23 02:49:35;;;;;;;4.40;3.88;;;;;;;-2.43;98.14;101443.75;5071648;28;20036;-73
2022/11/23 02:52:03;;;;;;;4.70;3.70;;;;;;;-2.34;97.39;101443.38;5071642;28;20040;-71
2022/11/23 02:54:28;;;;;;;5.00;3.70;;;;;;;-2.36;97.46;101445.19;5071673;28;20031;-72
2022/11/23 02:56:54;;;;;;;3.83;3.23;;;;;;;-2.28;97.05;101448.38;5071685;28;20028;-71
2022/11/23 02:59:20;;;;;;;4.23;3.40;;;;;;;-2.33;97.63;101445.06;5071703;28;20040;-73
2022/11/23 03:01:46;;;;;;;5.30;4.80;;;;;;;-2.29;96.79;101456.25;5071540;28;20036;-73
2022/11/23 03:04:12;;;;;;;4.35;3.63;;;;;;;-2.45;96.92;101427.34;5071371;28;20067;-73
2022/11/23 03:06:37;;;;;;;4.10;3.70;;;;;;;-2.34;97.28;101453.81;5071510;28;20083;-72
2022/11/23 03:09:04;;;;;;;4.73;3.67;;;;;;;-2.39;97.40;101447.94;5071439;28;20525;-72
2022/11/23 03:11:30;;;;;;;4.45;3.95;;;;;;;-2.36;97.16;101449.56;5071206;28;20032;-73
2022/11/23 03:13:55;;;;;;;5.33;4.83;;;;;;;-2.41;97.30;101441.94;5071564;28;20368;-72
2022/11/23 03:16:21;;;;;;;5.10;4.60;;;;;;;-2.44;97.83;101447.28;5071178;28;20017;-73
2022/11/23 03:18:46;;;;;;;4.77;3.70;;;;;;;-2.40;97.37;101451.47;5071174;28;20029;-74
2022/11/23 03:21:12;;;;;;;4.40;4.00;;;;;;;-2.43;97.16;101454.19;5053099;28;20020;-72
2022/11/23 03:23:37;;;;;;;3.97;3.53;;;;;;;-2.47;97.77;101455.25;5071131;28;20049;-72
2022/11/23 03:26:03;;;;;;;4.53;3.67;;;;;;;-2.51;98.18;101461.50;5071402;28;20544;-74
2022/11/23 03:28:29;;;;;;;3.80;3.40;;;;;;;-2.50;98.66;101453.59;5071258;28;20024;-73
2022/11/23 03:30:54;;;;;;;4.40;3.73;;;;;;;-2.48;98.34;101453.53;5071161;28;20464;-73
2022/11/23 03:33:20;;;;;;;5.40;4.37;;;;;;;-2.45;98.44;101461.25;5070929;28;20123;-71
2022/11/23 03:35:49;;;;;;;4.70;3.55;;;;;;;-2.46;98.32;101459.53;5070739;28;20045;-72
2022/11/23 03:38:14;;;;;;;4.43;3.97;;;;;;;-2.46;98.67;101464.75;5071138;28;20031;-73
2022/11/23 03:40:42;;;;;;;3.80;3.50;;;;;;;-2.44;98.79;101469.91;5070858;28;20044;-73
2022/11/23 03:43:08;;;;;;;4.20;3.35;;;;;;;-2.41;97.87;101467.19;5071025;28;20035;-73
2022/11/23 03:45:33;;;;;;;4.77;3.97;;;;;;;-2.45;98.30;101463.00;5074425;28;20024;-73
2022/11/23 03:47:59;;;;;;;5.13;4.10;;;;;;;-2.52;98.17;101455.44;5074504;28;20123;-73
2022/11/23 03:50:25;;;;;;;4.93;3.67;;;;;;;-2.54;98.14;101459.88;5074099;28;20080;-72
2022/11/23 03:52:51;;;;;;;3.95;3.38;;;;;;;-2.55;97.49;101458.16;5074380;28;20043;-72
2022/11/23 03:55:17;;;;;;;4.23;3.80;;;;;;;-2.56;97.87;101460.84;5074391;28;20029;-72
2022/11/23 03:57:42;;;;;;;6.07;5.27;;;;;;;-2.63;97.36;101454.16;5074366;28;20025;-73
2022/11/23 04:00:08;;;;;;;4.93;3.77;;;;;;;-2.68;97.32;101430.03;5075175;28;20111;-73
2022/11/23 04:02:34;;;;;;;5.32;4.03;;;;;;;-2.60;96.97;101457.50;5074766;28;20048;-72
2022/11/23 04:05:00;;;;;;;4.70;3.67;;;;;;;-2.65;97.90;101453.38;5074690;28;20568;-72
2022/11/23 04:07:26;;;;;;;5.80;4.67;;;;;;;-2.67;97.13;101458.66;5075376;28;20027;-72
2022/11/23 04:09:52;;;;;;;5.80;4.10;;;;;;;-2.91;96.88;101429.19;5073491;28;20649;-73
2022/11/23 04:12:17;;;;;;;5.67;3.77;;;;;;;-2.79;96.23;101460.91;5055595;28;20263;-74
2022/11/23 04:14:43;;;;;;;3.73;3.43;;;;;;;-2.82;96.79;101448.84;5073477;28;20028;-74
2022/11/23 04:17:08;;;;;;;3.50;3.13;;;;;;;-2.75;96.85;101460.72;5073937;28;20023;-77
2022/11/23 04:19:34;;;;;;;3.90;3.50;;;;;;;-2.73;97.54;101447.63;5073653;28;20086;-73
2022/11/23 04:21:59;;;;;;;4.67;4.10;;;;;;;-2.67;96.92;101449.97;5073957;28;20059;-75
2022/11/23 04:24:25;;;;;;;3.60;3.30;;;;;;;-2.62;97.40;101458.44;5076004;28;20025;-75
2022/11/23 04:26:50;;;;;;;6.20;4.30;;;;;;;-2.67;96.21;101449.97;5061920;28;20024;-80
2022/11/23 04:29:16;;;;;;;4.13;3.20;;;;;;;-2.57;96.53;101453.94;5084612;28;20021;-74
2022/11/23 04:31:41;;;;;;;4.57;3.90;;;;;;;-2.73;96.93;101425.00;5081106;28;20043;-76
2022/11/23 04:34:07;;;;;;;5.00;4.23;;;;;;;-2.55;96.33;101454.72;5077935;28;20446;-75
2022/11/23 04:36:38;;;;;;;4.70;4.10;;;;;;;-2.61;96.08;101454.94;5077837;28;20380;-76
2022/11/23 04:39:05;;;;;;;4.40;3.90;;;;;;;-2.63;96.74;101456.75;5079714;28;20028;-74
2022/11/23 04:41:30;;;;;;;5.40;3.85;;;;;;;-2.75;96.97;101457.25;5082537;28;20039;-77
2022/11/23 04:43:56;;;;;;;5.93;4.93;;;;;;;-2.73;97.57;101458.91;5081445;28;20111;-76
2022/11/23 04:46:22;;;;;;;4.30;3.80;;;;;;;-2.73;97.95;101460.66;5057190;28;20055;-77
2022/11/23 04:48:47;;;;;;;5.70;4.93;;;;;;;-2.78;97.96;101453.03;5056174;28;20033;-76
2022/11/23 04:51:13;;;;;;;6.80;4.63;;;;;;;-2.86;98.16;101458.53;5072981;28;20120;-74
2022/11/23 04:53:39;;;;;;;5.60;4.83;;;;;;;-2.89;98.44;101442.16;5055466;28;20044;-75
2022/11/23 04:56:05;;;;;;;4.40;3.73;;;;;;;-2.91;98.13;101450.03;5073011;28;20039;-75
2022/11/23 04:58:31;;;;;;;4.85;3.72;;;;;;;-2.89;98.11;101445.63;5072836;28;20468;-74
2022/11/23 05:00:57;;;;;;;5.70;4.87;;;;;;;-3.15;98.98;101407.56;5072950;28;20062;-73
2022/11/23 05:03:23;;;;;;;5.90;4.60;;;;;;;-2.82;99.46;101451.44;5073248;28;20081;-73
2022/11/23 05:05:49;;;;;;;7.77;4.63;;;;;;;-2.87;99.21;101454.25;5072879;28;20025;-74
2022/11/23 05:08:14;;;;;;;6.10;4.97;;;;;;;-2.89;98.82;101452.56;5073471;28;20104;-74
2022/11/23 05:10:40;;;;;;;6.23;4.17;;;;;;;-3.00;99.38;101432.16;5073348;28;20028;-76
2022/11/23 05:13:08;;;;;;;5.00;4.13;;;;;;;-2.92;99.46;101455.31;5072889;28;20028;-73
2022/11/23 05:15:34;;;;;;;6.38;5.40;;;;;;;-2.96;99.72;101453.72;5072799;28;20016;-74
2022/11/23 05:18:09;;;;;;;5.20;4.53;;;;;;;-3.01;99.16;101455.66;5072873;28;20038;-77
2022/11/23 05:20:35;;;;;;;4.65;3.97;;;;;;;-2.98;99.88;101451.19;5073472;28;20028;-76
2022/11/23 05:23:01;;;;;;;6.97;4.90;;;;;;;-2.92;99.38;101461.38;5055928;28;20036;-76
2022/11/23 05:25:27;;;;;;;6.57;4.70;;;;;;;-2.94;99.28;101450.16;5055902;28;20024;-76
2022/11/23 05:27:52;;;;;;;7.50;5.70;;;;;;;-3.03;99.61;101453.13;5055989;28;20344;-74
2022/11/23 05:30:18;;;;;;;6.43;4.77;;;;;;;-3.11;99.81;101449.97;5072968;28;20036;-74
2022/11/23 05:32:44;;;;;;;8.53;6.17;;;;;;;-3.33;100.00;101429.09;5072664;28;20036;-73
2022/11/23 05:35:10;;;;;;;6.93;5.20;;;;;;;-3.10;100.00;101456.03;5072903;28;20278;-74
2022/11/23 05:37:37;;;;;;;7.68;5.75;;;;;;;-3.16;100.00;101452.75;5072726;28;20040;-73
2022/11/23 05:40:04;;;;;;;7.13;4.70;;;;;;;-3.16;100.00;101452.75;5072544;28;20035;-76
2022/11/23 05:42:30;;;;;;;7.03;5.05;;;;;;;-3.09;100.00;101449.91;5072671;28;20041;-74
2022/11/23 05:44:59;;;;;;;5.83;4.70;;;;;;;-3.05;99.71;101448.88;5072525;28;20032;-73
2022/11/23 05:47:24;;;;;;;6.38;4.57;;;;;;;-3.07;100.00;101442.88;5072191;28;20028;-73
2022/11/23 05:49:50;;;;;;;6.20;4.70;;;;;;;-3.07;100.00;101450.69;5071957;28;20057;-73
2022/11/23 05:52:16;;;;;;;6.07;5.20;;;;;;;-3.04;100.00;101455.78;5071902;28;20498;-72
2022/11/23 05:54:42;;;;;;;6.10;5.43;;;;;;;-3.05;100.00;101446.28;5072256;28;20037;-71
2022/11/23 05:57:08;;;;;;;6.13;4.53;;;;;;;-3.01;100.00;101455.66;5072431;28;20321;-77
2022/11/23 05:59:33;;;;;;;6.00;5.23;;;;;;;-2.97;99.88;101455.50;5072141;28;20031;-75
2022/11/23 06:01:59;;;;;;;6.47;4.10;;;;;;;-3.01;99.91;101445.25;5071673;28;20082;-73
2022/11/23 06:04:24;;;;;;;5.63;4.30;;;;;;;-3.01;100.00;101446.09;5072198;28;20020;-74
2022/11/23 06:06:53;;;;;;;6.30;4.40;;;;;;;-2.97;99.54;101455.50;5070770;28;20024;-72
2022/11/23 06:09:19;;;;;;;6.60;5.05;;;;;;;-2.95;99.50;101445.00;5070973;28;20028;-72
2022/11/23 06:11:47;;;;;;;4.83;4.23;;;;;;;-2.91;98.93;101452.63;5070904;28;20028;-71
2022/11/23 06:14:12;;;;;;;11.10;4.10;;;;;;;-3.01;99.48;101446.09;5070654;28;20027;-72
2022/11/23 06:16:38;;;;;;;4.80;4.23;;;;;;;-2.90;100.00;101458.69;5071250;28;20036;-72
2022/11/23 06:19:07;;;;;;;5.43;4.43;;;;;;;-2.79;99.45;101456.53;5071453;28;20349;-72
2022/11/23 06:21:32;;;;;;;4.68;4.18;;;;;;;-2.75;99.11;101458.09;5071028;28;20437;-72
2022/11/23 06:23:58;;;;;;;4.77;4.23;;;;;;;-2.71;99.75;101464.91;5071928;28;20104;-73
2022/11/23 06:26:27;;;;;;;5.43;3.87;;;;;;;-2.71;99.02;101462.28;5072077;28;20380;-72
2022/11/23 06:28:52;;;;;;;4.35;3.95;;;;;;;-2.79;98.84;101458.28;5071575;28;20463;-73
2022/11/23 06:31:18;;;;;;;4.67;3.87;;;;;;;-2.76;99.11;101458.16;5072374;28;20034;-77
2022/11/23 06:33:44;;;;;;;5.97;4.50;;;;;;;-2.72;99.02;101457.97;5080618;28;20031;-75
2022/11/23 06:36:10;;;;;;;5.93;4.97;;;;;;;-2.81;99.22;101433.13;5073557;28;20042;-73
2022/11/23 06:39:01;;;;;;;5.53;4.38;;;;;;;-2.68;98.91;101443.06;5071977;28;20094;-75
2022/11/23 06:41:26;;;;;;;6.57;4.47;;;;;;;-2.70;99.34;101450.94;5071993;28;20484;-73
2022/11/23 06:43:52;;;;;;;6.77;4.77;;;;;;;-2.74;98.46;101448.53;5071725;28;20521;-72
2022/11/23 06:46:20;;;;;;;5.82;4.85;;;;;;;-2.72;99.36;101451.91;5054473;28;20051;-73
2022/11/23 06:48:46;;;;;;;5.00;4.20;;;;;;;-2.71;99.01;101451.00;5071872;28;20036;-73
2022/11/23 06:51:19;;;;;;;5.57;4.22;;;;;;;-2.71;98.70;101453.63;5071757;28;20045;-73
2022/11/23 06:53:47;;;;;;;5.55;3.92;;;;;;;-2.77;98.45;101454.72;5071490;28;20094;-72
2022/11/23 06:56:13;;;;;;;7.53;4.25;;;;;;;-2.79;99.03;101466.13;5071635;28;20468;-73
2022/11/23 06:58:39;;;;;;;4.40;4.00;;;;;;;-2.82;98.93;101461.88;5071724;28;20032;-73
2022/11/23 07:01:07;;;;;;;4.10;3.70;;;;;;;-2.83;98.56;101470.59;5053765;28;20029;-73
2022/11/23 07:03:34;;;;;;;4.90;4.35;;;;;;;-2.79;98.76;101471.34;5071744;28;20021;-73
2022/11/23 07:06:08;;;;;;;;;;;;;;;-2.70;98.13;101478.78;5072035;28;20032;-73
2022/11/23 07:08:35;;;;;;;5.53;4.00;;;;;;;-2.70;98.00;101486.59;5071703;28;20343;-74
2022/11/23 07:11:02;;;;;;;6.00;4.68;;;;;;;-2.68;98.23;101490.84;5071905;28;20040;-73
2022/11/23 07:13:28;;;;;;;4.28;3.10;;;;;;;-2.68;98.02;101479.56;5073482;28;20027;-72
2022/11/23 07:15:53;;;;;;;6.53;3.43;;;;;;;-2.70;97.83;101478.78;5072111;28;20476;-73
2022/11/23 07:18:19;;;;;;;6.10;4.00;;;;;;;-2.65;98.49;101479.44;5071767;28;20032;-73
2022/11/23 07:20:44;;;;;;;8.20;4.20;;;;;;;-2.64;98.23;101475.91;5075276;28;20037;-71
2022/11/23 07:23:13;;;;;;;6.77;3.30;;;;;;;-2.57;97.79;101477.41;5076520;28;20040;-72
2022/11/23 07:25:39;;;;;;;;;;;;;;;-2.54;97.67;101485.09;5076617;28;20025;-72
2022/11/23 07:28:06;;;;;;;4.30;3.80;;;;;;;-2.53;97.92;101487.63;5075961;28;19969;-73
2022/11/23 07:30:33;;;;;;;4.97;4.00;;;;;;;-2.65;97.30;101469.00;5075283;28;20024;-72
2022/11/23 07:33:03;;;;;;;6.10;3.72;;;;;;;-2.54;97.83;101479.88;5075097;28;20038;-72
2022/11/23 07:35:30;;;;;;;10.32;4.50;;;;;;;-2.52;98.10;101478.91;5075081;28;20028;-73
2022/11/23 07:37:56;;;;;;;5.20;3.88;;;;;;;-2.44;98.11;101483.81;5074895;28;20042;-73
2022/11/23 07:40:22;;;;;;;5.28;4.03;;;;;;;-2.34;97.76;101486.88;5074665;28;20310;-73
2022/11/23 07:42:48;;;;;;;6.37;4.57;;;;;;;-2.41;97.04;101488.91;5074864;28;20028;-74
2022/11/23 07:45:13;;;;;;;4.57;4.10;;;;;;;-2.44;97.31;101483.81;5074925;28;20503;-74
2022/11/23 07:47:39;;;;;;;4.27;3.67;;;;;;;-2.42;97.61;101487.19;5074652;28;20028;-73
2022/11/23 07:50:14;;;;;;;5.03;3.87;;;;;;;-2.37;97.62;101484.41;5055458;28;20418;-73
2022/11/23 07:52:42;;;;;;;5.30;4.18;;;;;;;-2.29;97.78;101492.78;5075000;28;20119;-73
2022/11/23 07:55:08;;;;;;;5.93;3.80;;;;;;;-2.25;98.05;101495.19;5056731;28;20403;-72
2022/11/23 07:57:33;;;;;;;4.73;3.67;;;;;;;-2.22;98.32;101491.63;5074595;28;20028;-72
2022/11/23 08:00:02;;;;;;;6.90;3.57;;;;;;;-2.20;98.24;101495.84;5074476;28;20490;-72
2022/11/23 08:02:28;;;;;;;5.28;3.72;;;;;;;-2.50;98.20;101452.75;5074373;28;20035;-73
2022/11/23 08:04:54;;;;;;;6.73;5.10;;;;;;;-2.20;98.34;101501.06;5074331;28;20033;-73
2022/11/23 08:07:22;;;;;;;5.07;3.97;;;;;;;-2.23;98.09;101506.41;5074828;28;20040;-72
2022/11/23 08:09:48;;;;;;;5.60;4.13;;;;;;;-2.25;98.49;101500.41;5059166;28;20372;-73
2022/11/23 08:12:13;;;;;;;5.27;3.30;;;;;;;-2.26;98.78;101492.66;5076157;28;20031;-74
2022/11/23 08:14:39;;;;;;;6.27;4.80;;;;;;;-2.23;98.93;101495.13;5074783;28;20036;-72
2022/11/23 08:17:04;;;;;;;6.20;3.43;;;;;;;-2.17;98.82;101491.41;5074122;28;20516;-73
2022/11/23 08:19:30;;;;;;;6.00;3.60;;;;;;;-2.14;98.61;101499.97;5074159;28;20067;-73
2022/11/23 08:21:55;;;;;;;3.70;3.20;;;;;;;-2.09;98.30;101499.75;5074408;28;20029;-72
2022/11/23 08:24:21;;;;;;;3.17;2.80;;;;;;;-2.08;98.45;101491.03;5074318;28;20032;-73
2022/11/23 08:26:46;;;;;;;3.20;2.80;;;;;;;-1.99;97.69;101490.66;5074435;28;20029;-73
2022/11/23 08:29:12;;;;;;;3.73;2.77;;;;;;;-1.99;97.56;101490.66;5087794;28;20024;-73
2022/11/23 08:31:38;;;;;;;3.33;3.03;;;;;;;-1.92;97.26;101495.53;5081826;28;20021;-73
2022/11/23 08:34:03;;;;;;;7.33;5.00;;;;;;;-1.83;97.15;101496.91;5076352;28;20064;-73
2022/11/23 08:36:28;;;;;;;6.77;3.23;;;;;;;-1.81;97.36;101487.25;5074835;28;20032;-74
2022/11/23 08:38:54;;;;;;;2.77;2.47;;;;;;;-1.77;96.89;101494.03;5056642;28;20032;-73
2022/11/23 08:41:20;;;;;;;3.30;3.00;;;;;;;-1.76;96.14;101492.25;5056483;28;20048;-74
2022/11/23 08:43:46;;;;;;;3.30;3.00;;;;;;;-1.78;96.28;101494.94;5074854;28;20115;-73
2022/11/23 08:46:12;;;;;;;8.20;3.00;;;;;;;-1.77;96.14;101495.78;5074314;28;20028;-71
2022/11/23 08:48:37;;;;;;;2.73;2.50;;;;;;;-1.74;96.57;101493.03;5074187;28;20259;-73
2022/11/23 08:51:03;;;;;;;4.13;2.77;;;;;;;-1.72;96.22;101491.25;5073450;28;20072;-73
2022/11/23 08:53:29;;;;;;;4.80;3.45;;;;;;;-1.73;96.09;101493.00;5073489;28;20491;-72
2022/11/23 08:55:55;;;;;;;3.90;3.37;;;;;;;-1.74;96.79;101493.88;5073648;28;20028;-73
2022/11/23 08:58:20;;;;;;;5.10;3.30;;;;;;;-1.76;96.73;101492.25;5055224;28;20036;-73
2022/11/23 09:00:46;;;;;;;3.63;3.20;;;;;;;-1.79;96.49;101488.03;5073124;28;20074;-72
2022/11/23 09:03:11;;;;;;;4.13;3.30;;;;;;;-1.71;96.98;101496.41;5055529;28;20051;-73
2022/11/23 09:05:38;;;;;;;3.23;2.87;;;;;;;-1.76;96.17;101487.03;5073463;28;20111;-72
2022/11/23 09:08:03;;;;;;;4.65;4.25;;;;;;;-1.62;96.57;101495.16;5073324;28;20025;-72
2022/11/23 09:10:29;;;;;;;3.67;3.03;;;;;;;-1.67;96.12;101492.75;5055540;28;20425;-75
2022/11/23 09:12:55;;;;;;;4.00;3.30;;;;;;;-1.63;96.89;101496.91;5073411;28;20031;-73
2022/11/23 09:15:20;;;;;;;4.50;2.63;;;;;;;-1.68;95.88;101485.81;5073163;28;20036;-72
2022/11/23 09:17:46;;;;;;;3.10;2.47;;;;;;;-1.67;96.59;101499.72;5055296;28;20517;-73
2022/11/23 09:20:11;;;;;;;3.00;2.60;;;;;;;-1.68;96.25;101498.88;5073015;28;20403;-72
2022/11/23 09:22:37;;;;;;;2.63;2.43;;;;;;;-1.63;96.31;101502.13;5073287;28;20043;-71
2022/11/23 09:25:04;;;;;;;7.25;3.47;;;;;;;-1.51;96.45;101505.09;5073013;28;20036;-74
2022/11/23 09:27:29;;;;;;;3.00;2.80;;;;;;;-1.52;96.06;101506.03;5073130;28;20040;-75
2022/11/23 09:29:55;;;;;;;3.43;2.87;;;;;;;-1.60;95.47;101502.00;5072379;28;20411;-73
2022/11/23 09:32:21;;;;;;;4.23;3.03;;;;;;;-1.60;95.61;101503.75;5072951;28;20460;-74
2022/11/23 09:34:46;;;;;;;4.20;3.53;;;;;;;-1.59;95.45;101513.28;5054994;28;20050;-73
2022/11/23 09:37:12;;;;;;;4.30;2.77;;;;;;;-1.60;95.83;101499.38;5072683;28;20016;-73
2022/11/23 09:39:37;;;;;;;7.97;3.10;;;;;;;-1.65;95.85;101506.56;5072677;28;20472;-72
2022/11/23 09:42:37;;;;;;;3.57;3.23;;;;;;;-1.53;95.75;101510.41;5054061;28;20036;-73
2022/11/23 09:45:13;;;;;;;4.20;2.60;;;;;;;-1.60;95.02;101504.59;5072876;28;20033;-74
2022/11/23 09:47:42;;;;;;;4.00;3.35;;;;;;;-1.67;95.42;101516.25;5073350;28;20339;-73
2022/11/23 09:50:39;;;;;;;3.40;2.70;;;;;;;-1.66;95.27;101510.09;5073673;28;20118;-73
2022/11/23 09:53:12;;;;;;;4.90;3.43;;;;;;;-1.61;94.67;101526.41;5073316;28;20063;-74
2022/11/23 09:55:46;;;;;;;3.28;2.75;;;;;;;-1.62;94.77;101516.88;5073102;28;20263;-73
2022/11/23 09:58:16;;;;;;;3.00;2.50;;;;;;;-1.73;94.87;101513.91;5055176;28;20456;-74
2022/11/23 10:00:56;;;;;;;2.90;2.70;;;;;;;-1.71;95.38;101525.13;5073365;28;20279;-73
2022/11/23 10:03:21;;;;;;;3.00;2.70;;;;;;;-1.78;95.43;101510.59;5073167;28;20020;-73
2022/11/23 10:06:13;;;;;;;4.53;2.57;;;;;;;-1.76;95.36;101519.22;5076462;28;20046;-71
2022/11/23 10:09:00;;;;;;;4.47;3.17;;;;;;;-1.69;95.94;101519.84;5077306;28;20058;-73
2022/11/23 10:11:48;;;;;;;4.93;3.50;;;;;;;-1.62;95.65;101527.34;5056675;28;20040;-74
2022/11/23 10:14:32;;;;;;;2.67;2.47;;;;;;;-1.75;95.37;101512.25;5072967;28;20325;-75
2022/11/23 10:17:19;;;;;;;3.50;2.60;;;;;;;-1.73;96.49;101531.34;5073603;28;20024;-73
2022/11/23 10:20:21;;;;;;;3.60;2.85;;;;;;;-1.73;96.28;101519.13;5074238;28;20602;-74
2022/11/23 10:22:59;;;;;;;3.63;2.95;;;;;;;-1.74;97.00;101522.63;5057058;28;20078;-72
2022/11/23 10:25:33;;;;;;;3.78;3.38;;;;;;;-1.74;97.50;101530.44;5055056;28;20036;-72
2022/11/23 10:28:10;;;;;;;2.78;2.58;;;;;;;-2.03;97.71;101487.31;5072427;28;20467;-74
2022/11/23 10:30:37;;;;;;;4.65;3.28;;;;;;;-1.85;98.23;101524.84;5072183;28;20021;-74
2022/11/23 10:33:30;;;;;;;3.38;2.80;;;;;;;-1.83;98.62;101528.25;5054471;28;20372;-73
2022/11/23 10:35:56;;;;;;;4.65;3.35;;;;;;;-1.86;98.06;101533.59;5072314;28;20024;-73
2022/11/23 10:38:26;;;;;;;5.33;2.93;;;;;;;-1.83;98.23;101538.69;5072154;28;20031;-73
2022/11/23 10:41:11;;;;;;;5.45;2.80;;;;;;;-1.74;97.94;101538.28;5071736;28;20028;-73
2022/11/23 10:43:41;;;;;;;7.05;3.60;;;;;;;-1.74;97.92;101537.44;5072070;28;20044;-75
2022/11/23 10:46:36;;;;;;;3.50;3.03;;;;;;;-1.74;97.97;101538.28;5072086;28;20013;-72
2022/11/23 10:49:29;;;;;;;5.00;3.83;;;;;;;-1.77;98.47;101537.56;5071676;28;20341;-73
2022/11/23 10:52:24;;;;;;;5.57;3.35;;;;;;;-1.74;98.03;101538.28;5071722;28;20456;-73
2022/11/23 10:54:54;;;;;;;4.55;2.90;;;;;;;-1.79;97.13;101528.97;5075882;28;20515;-71
2022/11/23 10:57:26;;;;;;;2.63;2.42;;;;;;;-1.86;97.92;101528.38;5075752;28;20029;-73
2022/11/23 11:00:01;;;;;;;5.53;3.83;;;;;;;-1.90;98.00;101532.88;5075633;28;20028;-73
2022/11/23 11:02:27;;;;;;;3.38;2.30;;;;;;;-1.94;98.71;101518.25;5075800;28;20028;-73
2022/11/23 11:05:25;;;;;;;3.38;2.85;;;;;;;-1.91;97.69;101532.94;5057844;28;20032;-73
2022/11/23 11:07:52;;;;;;;4.53;3.33;;;;;;;-1.99;98.43;101527.19;5075321;28;20040;-73
2022/11/23 11:10:35;;;;;;;3.35;2.53;;;;;;;-2.03;97.73;101538.66;5075466;28;20030;-73
2022/11/23 11:13:01;;;;;;;3.28;2.78;;;;;;;-2.03;97.37;101530.81;5075298;28;20032;-74
2022/11/23 11:15:27;;;;;;;2.80;2.40;;;;;;;-2.11;97.94;101512.88;5075382;28;20028;-73
2022/11/23 11:17:59;;;;;;;3.72;2.50;;;;;;;-2.02;97.47;101524.72;5075490;28;20028;-74
2022/11/23 11:20:31;;;;;;;3.45;2.65;;;;;;;-2.09;98.06;101515.44;5075012;28;20037;-73
2022/11/23 11:23:02;;;;;;;3.88;3.28;;;;;;;-2.08;97.94;101519.72;5075279;28;20114;-72
2022/11/23 11:25:30;;;;;;;5.50;3.38;;;;;;;-2.04;98.32;101534.34;5075396;28;20421;-73
2022/11/23 11:27:57;;;;;;;3.53;2.78;;;;;;;-2.04;98.63;101536.97;5075520;28;20034;-73
2022/11/23 11:30:27;;;;;;;4.18;3.03;;;;;;;-2.03;98.80;101530.81;5075172;28;20028;-73